Time;durP1;ratioP1;P1;durP2;ratioP2;P2;SDS_P1;SDS_P2;PMS_P1;PMS_P2;Temp;Humidity;BMP_temperature;BMP_pressure;BME280_temperature;BME280_humidity;BME280_pressure;Samples;Min_cycle;Max_cycle;Signal;HPM_P1;HPM_P2
2022/03/22 00:00:47;;;;;;;8.80;4.00;;;;;-2.90;98627.00;;;;5073013;28;20980;-83
2022/03/22 00:03:36;;;;;;;4.97;4.00;;;;;-2.50;98638.00;;;;5074596;28;20431;-84
2022/03/22 00:06:25;;;;;;;4.80;4.27;;;;;-2.30;98632.00;;;;5074527;28;20446;-85
2022/03/22 00:09:14;;;;;;;5.97;4.07;;;;;-2.10;98648.00;;;;5075076;28;20440;-84
2022/03/22 00:12:05;;;;;;;8.10;5.20;;;;;-2.20;98650.00;;;;5078077;28;20462;-84
2022/03/22 00:14:54;;;;;;;6.07;4.93;;;;;-2.30;98637.00;;;;5070532;28;20436;-84
2022/03/22 00:18:05;;;;;;;9.97;7.30;;;;;-2.40;98644.00;;;;5076518;28;21214;-84
2022/03/22 00:20:54;;;;;;;7.00;5.27;;;;;-2.40;98651.00;;;;5074811;28;20470;-84
2022/03/22 00:23:43;;;;;;;5.87;5.23;;;;;-2.40;98635.00;;;;5073493;28;20873;-84
2022/03/22 00:26:32;;;;;;;7.50;5.47;;;;;-2.50;98645.00;;;;5063410;28;20963;-82
2022/03/22 00:29:21;;;;;;;11.03;5.43;;;;;-2.40;98647.00;;;;5054335;28;20809;-83
2022/03/22 00:32:10;;;;;;;6.63;4.37;;;;;-2.70;98641.00;;;;5052852;28;20447;-83
2022/03/22 00:35:01;;;;;;;10.23;6.23;;;;;-2.90;98636.00;;;;5052529;28;20423;-84
2022/03/22 00:37:52;;;;;;;9.13;6.00;;;;;-2.90;98631.00;;;;5052591;28;20424;-84
2022/03/22 00:40:41;;;;;;;9.07;6.07;;;;;-3.00;98631.00;;;;5055598;28;20463;-84
2022/03/22 00:43:31;;;;;;;9.43;5.00;;;;;-3.30;98633.00;;;;5055077;28;20431;-84
2022/03/22 00:46:20;;;;;;;6.93;3.50;;;;;-3.50;98627.00;;;;5054480;28;20822;-84
2022/03/22 00:49:09;;;;;;;1.60;1.50;;;;;-3.80;98623.00;;;;5053990;28;20439;-84
2022/03/22 00:52:01;;;;;;;8.57;5.53;;;;;-3.40;98622.00;;;;5053677;28;20494;-83
2022/03/22 00:54:50;;;;;;;4.97;4.13;;;;;-3.00;98626.00;;;;5055000;28;20431;-84
2022/03/22 00:57:39;;;;;;;6.00;4.77;;;;;-3.00;98621.00;;;;5063836;28;20450;-84
2022/03/22 01:00:29;;;;;;;6.40;5.17;;;;;-3.10;98618.00;;;;5058745;28;20993;-83
2022/03/22 01:03:18;;;;;;;8.70;4.50;;;;;-3.00;98627.00;;;;5054325;28;20823;-84
2022/03/22 01:06:07;;;;;;;7.53;6.10;;;;;-2.90;98620.00;;;;5053268;28;20431;-84
2022/03/22 01:08:58;;;;;;;6.90;5.70;;;;;-3.00;98631.00;;;;5053320;28;20439;-84
2022/03/22 01:11:47;;;;;;;6.57;5.27;;;;;-3.20;98628.00;;;;5076343;28;20445;-84
2022/03/22 01:14:37;;;;;;;7.43;5.03;;;;;-3.40;98618.00;;;;5065731;28;20801;-83
2022/03/22 01:17:27;;;;;;;5.50;4.03;;;;;-3.60;98602.00;;;;5054213;28;20427;-84
2022/03/22 01:20:16;;;;;;;7.23;5.03;;;;;-3.30;98615.00;;;;5054587;28;20475;-84
2022/03/22 01:23:08;;;;;;;5.47;4.47;;;;;-3.50;98619.00;;;;5062845;28;20813;-84
2022/03/22 01:25:58;;;;;;;5.93;4.80;;;;;-3.60;98602.00;;;;5064453;28;20424;-84
2022/03/22 01:28:48;;;;;;;10.80;4.20;;;;;-3.80;98600.00;;;;5058002;28;20442;-84
2022/03/22 01:31:37;;;;;;;6.80;5.00;;;;;-4.00;98593.00;;;;5074752;28;20443;-84
2022/03/22 01:34:27;;;;;;;5.90;5.00;;;;;-3.70;98595.00;;;;5074420;28;20422;-84
2022/03/22 01:37:16;;;;;;;4.60;3.90;;;;;-3.40;98595.00;;;;5074267;28;20442;-84
2022/03/22 01:40:06;;;;;;;11.53;4.97;;;;;-3.20;98583.00;;;;5072273;28;20455;-84
2022/03/22 01:42:57;;;;;;;5.10;4.03;;;;;-3.10;98588.00;;;;5054767;28;20825;-84
2022/03/22 01:45:49;;;;;;;5.97;4.77;;;;;-3.20;98592.00;;;;5055537;28;20416;-84
2022/03/22 01:48:39;;;;;;;12.97;5.83;;;;;-3.40;98601.00;;;;5061243;28;20431;-84
2022/03/22 01:51:28;;;;;;;6.93;4.60;;;;;-3.40;98597.00;;;;5074751;28;20458;-84
2022/03/22 01:54:18;;;;;;;6.00;5.40;;;;;-3.40;98596.00;;;;5074571;28;20933;-83
2022/03/22 01:57:07;;;;;;;4.33;3.90;;;;;-3.60;98595.00;;;;5073945;28;20442;-84
2022/03/22 01:59:58;;;;;;;5.20;4.70;;;;;-3.70;98588.00;;;;5073017;28;20462;-84
2022/03/22 02:05:57;;;;;;;5.20;4.70;;;;;-3.70;98596.00;;;;5074892;28;20441;-84
2022/03/22 02:08:46;;;;;;;6.53;5.53;;;;;-3.60;98597.00;;;;5075451;28;20471;-83
2022/03/22 02:11:35;;;;;;;5.93;4.10;;;;;-3.70;98586.00;;;;5077510;28;20446;-83
2022/03/22 02:14:24;;;;;;;3.90;3.50;;;;;-4.40;98569.00;;;;5067702;28;20434;-83
2022/03/22 02:17:14;;;;;;;5.60;4.57;;;;;-4.20;98586.00;;;;5072599;28;20423;-83
2022/03/22 02:20:04;;;;;;;6.63;4.47;;;;;-3.80;98584.00;;;;5074034;28;20470;-83
2022/03/22 02:22:56;;;;;;;5.23;3.90;;;;;-4.00;98581.00;;;;5073932;28;20454;-84
2022/03/22 02:25:49;;;;;;;6.17;4.47;;;;;-3.80;98580.00;;;;5068767;28;20438;-83
2022/03/22 02:28:38;;;;;;;9.20;4.83;;;;;-3.40;98583.00;;;;5055777;28;20431;-84
2022/03/22 02:31:29;;;;;;;6.50;4.50;;;;;-3.20;98578.00;;;;5073956;28;20814;-82
2022/03/22 02:34:18;;;;;;;4.93;4.03;;;;;-3.20;98586.00;;;;5074581;28;20426;-83
2022/03/22 02:37:08;;;;;;;5.33;4.63;;;;;-3.20;98576.00;;;;5073862;28;20438;-84
2022/03/22 02:39:57;;;;;;;9.83;4.77;;;;;-3.40;98589.00;;;;5058931;28;20427;-84
2022/03/22 02:42:50;;;;;;;6.30;5.07;;;;;-3.50;98591.00;;;;5052661;28;20443;-84
2022/03/22 02:45:39;;;;;;;6.33;5.53;;;;;-3.60;98583.00;;;;5063145;28;20427;-84
2022/03/22 02:48:28;;;;;;;6.40;5.33;;;;;-3.70;98575.00;;;;5073491;28;20438;-84
2022/03/22 02:51:18;;;;;;;7.60;5.10;;;;;-3.90;98574.00;;;;5074182;28;20469;-84
2022/03/22 02:54:07;;;;;;;5.20;4.70;;;;;-4.00;98581.00;;;;5074270;28;20431;-84
2022/03/22 02:56:56;;;;;;;9.33;5.97;;;;;-3.80;98576.00;;;;5077325;28;20434;-84
2022/03/22 02:59:46;;;;;;;7.43;4.77;;;;;-3.80;98578.00;;;;5073039;28;20442;-83
2022/03/22 03:02:42;;;;;;;8.60;6.27;;;;;-3.60;98575.00;;;;5071824;28;20446;-84
2022/03/22 03:05:32;;;;;;;8.57;6.20;;;;;-3.70;98570.00;;;;5066905;28;20455;-83
2022/03/22 03:08:26;;;;;;;7.20;5.00;;;;;-3.50;98578.00;;;;5057031;28;20546;-84
2022/03/22 03:11:15;;;;;;;7.17;6.03;;;;;-3.60;98576.00;;;;5079085;28;20445;-82
2022/03/22 03:17:14;;;;;;;9.93;6.30;;;;;-3.70;98579.00;;;;5065552;28;20445;-82
2022/03/22 03:20:04;;;;;;;9.47;6.80;;;;;-3.80;98583.00;;;;5080701;28;21247;-83
2022/03/22 03:22:53;;;;;;;10.00;6.93;;;;;-3.90;98579.00;;;;5079590;28;20449;-84
2022/03/22 03:25:42;;;;;;;7.93;5.33;;;;;-4.40;98567.00;;;;5065999;28;20949;-83
2022/03/22 03:28:31;;;;;;;4.73;4.33;;;;;-4.20;98584.00;;;;5071769;28;20442;-83
2022/03/22 03:31:20;;;;;;;7.20;6.03;;;;;-4.00;98583.00;;;;5076035;28;20457;-83
2022/03/22 03:34:11;;;;;;;6.53;5.53;;;;;-3.70;98589.00;;;;5076828;28;20434;-84
2022/03/22 03:37:00;;;;;;;9.40;5.67;;;;;-3.60;98582.00;;;;5077766;28;20441;-83
2022/03/22 03:39:49;;;;;;;6.50;5.07;;;;;-3.70;98586.00;;;;5070024;28;20866;-84
2022/03/22 03:42:42;;;;;;;6.87;5.57;;;;;-3.70;98581.00;;;;5058467;28;21188;-84
2022/03/22 03:48:37;;;;;;;9.87;5.50;;;;;-3.90;98600.00;;;;5058633;28;20453;-83
2022/03/22 03:51:28;;;;;;;6.53;4.80;;;;;-4.30;98579.00;;;;5058035;28;20465;-84
2022/03/22 03:54:17;;;;;;;5.70;4.90;;;;;-4.50;98582.00;;;;5066778;28;20427;-84
2022/03/22 03:57:07;;;;;;;8.57;4.93;;;;;-4.30;98578.00;;;;5078410;28;20438;-83
2022/03/22 03:59:57;;;;;;;10.53;5.70;;;;;-4.10;98595.00;;;;5068562;28;20431;-84
2022/03/22 04:02:46;;;;;;;4.73;3.97;;;;;-4.40;98586.00;;;;5071805;28;20474;-83
2022/03/22 04:05:35;;;;;;;5.00;4.50;;;;;-4.30;98590.00;;;;5059205;28;20427;-83
2022/03/22 04:08:27;;;;;;;5.07;4.43;;;;;-4.40;98584.00;;;;5065963;28;20441;-82
2022/03/22 04:11:16;;;;;;;9.17;5.47;;;;;-4.20;98594.00;;;;5086882;28;20976;-84
2022/03/22 04:14:05;;;;;;;5.87;4.83;;;;;-4.10;98593.00;;;;5072996;28;20439;-84
2022/03/22 04:16:56;;;;;;;6.87;4.60;;;;;-4.30;98583.00;;;;5082195;28;20831;-83
2022/03/22 04:19:45;;;;;;;4.73;3.50;;;;;-4.20;98596.00;;;;5075686;28;20948;-83
2022/03/22 04:22:34;;;;;;;8.03;5.00;;;;;-4.20;98604.00;;;;5084170;28;20474;-84
2022/03/22 04:25:25;;;;;;;5.20;4.13;;;;;-4.00;98597.00;;;;5080940;28;20419;-84
2022/03/22 04:34:42;;;;;;;9.17;4.53;;;;;-4.50;98587.00;;;;5016646;28;20434;-83
2022/03/22 04:37:31;;;;;;;5.77;4.60;;;;;-4.30;98591.00;;;;5003007;28;20428;-83
2022/03/22 04:40:20;;;;;;;5.57;4.60;;;;;-4.30;98606.00;;;;5073061;28;20450;-84
2022/03/22 04:43:10;;;;;;;4.97;4.03;;;;;-4.60;98606.00;;;;5094884;28;20471;-84
2022/03/22 04:45:59;;;;;;;2.67;2.17;;;;;-5.00;98598.00;;;;5067298;28;20427;-83
2022/03/22 04:48:49;;;;;;;3.17;2.87;;;;;-5.30;98589.00;;;;5058951;28;20492;-83
2022/03/22 04:57:52;;;;;;;5.07;4.77;;;;;-4.90;98607.00;;;;5085751;28;20438;-83
2022/03/22 05:00:43;;;;;;;4.63;4.20;;;;;-5.20;98610.00;;;;5070963;28;20446;-84
2022/03/22 05:03:32;;;;;;;4.43;3.43;;;;;-4.80;98600.00;;;;5072524;28;20438;-82
2022/03/22 05:06:28;;;;;;;5.10;4.57;;;;;-4.50;98610.00;;;;5066760;28;20426;-83
2022/03/22 05:09:17;;;;;;;4.60;4.20;;;;;-4.60;98601.00;;;;5070134;28;20807;-83
2022/03/22 05:12:13;;;;;;;3.73;3.43;;;;;-4.60;98590.00;;;;5081974;28;20458;-84
2022/03/22 05:15:03;;;;;;;6.80;4.67;;;;;-4.40;98600.00;;;;5072617;28;20960;-83
2022/03/22 05:17:56;;;;;;;5.30;3.70;;;;;-5.20;98594.00;;;;5077133;28;20426;-82
2022/03/22 05:20:45;;;;;;;6.57;4.37;;;;;-5.10;98598.00;;;;5076068;28;20787;-83
2022/03/22 05:23:34;;;;;;;7.07;3.50;;;;;-5.00;98604.00;;;;5081052;28;20431;-83
2022/03/22 05:26:26;;;;;;;6.80;4.50;;;;;-4.80;98604.00;;;;5069817;28;20485;-83
2022/03/22 05:29:17;;;;;;;1.43;1.33;;;;;-5.40;98600.00;;;;5083254;28;20434;-83
2022/03/22 05:32:07;;;;;;;3.67;3.37;;;;;-5.20;98594.00;;;;5085146;28;20461;-83
2022/03/22 05:34:58;;;;;;;2.40;2.30;;;;;-5.10;98596.00;;;;5071431;28;20435;-83
2022/03/22 05:37:47;;;;;;;5.33;4.33;;;;;-4.70;98603.00;;;;5058694;28;20430;-83
2022/03/22 05:40:39;;;;;;;8.38;5.38;;;;;-4.50;98604.00;;;;5060948;28;20443;-83
2022/03/22 05:43:28;;;;;;;7.33;4.90;;;;;-4.50;98592.00;;;;5071501;28;20216;-83
2022/03/22 05:46:18;;;;;;;8.33;4.50;;;;;-4.40;98600.00;;;;5066398;28;20449;-83
2022/03/22 05:49:08;;;;;;;8.47;7.27;;;;;-4.30;98601.00;;;;5069019;28;20438;-83
2022/03/22 05:51:59;;;;;;;13.87;7.67;;;;;-3.90;98601.00;;;;5066935;28;20511;-83
2022/03/22 05:54:48;;;;;;;8.70;4.73;;;;;-4.30;98607.00;;;;5070174;28;20439;-83
2022/03/22 05:57:37;;;;;;;4.43;4.03;;;;;-4.60;98602.00;;;;5060765;28;20439;-84
2022/03/22 06:00:26;;;;;;;3.17;2.97;;;;;-4.40;98605.00;;;;5067702;28;20446;-83
2022/03/22 06:03:16;;;;;;;6.73;3.87;;;;;-4.20;98598.00;;;;5071998;28;20475;-84
2022/03/22 06:06:05;;;;;;;6.87;5.30;;;;;-3.90;98601.00;;;;5076573;28;20498;-83
2022/03/22 06:08:56;;;;;;;7.40;5.37;;;;;-3.60;98608.00;;;;5074695;28;20476;-83
2022/03/22 06:11:45;;;;;;;7.00;5.30;;;;;-3.70;98601.00;;;;5082918;28;20828;-82
2022/03/22 06:14:34;;;;;;;4.33;3.97;;;;;-3.80;98611.00;;;;5074406;28;20439;-82
2022/03/22 06:17:23;;;;;;;8.00;5.00;;;;;-3.60;98613.00;;;;5076658;28;20436;-84
2022/03/22 06:20:13;;;;;;;7.10;4.00;;;;;-3.60;98614.00;;;;5077644;28;20426;-83
2022/03/22 06:23:03;;;;;;;5.50;4.97;;;;;-3.40;98609.00;;;;5063884;28;20993;-83
2022/03/22 06:25:54;;;;;;;8.77;4.43;;;;;-3.10;98614.00;;;;5073880;28;20439;-83
2022/03/22 06:28:43;;;;;;;6.27;4.80;;;;;-3.00;98623.00;;;;5090051;23;20486;-68
2022/03/22 06:31:33;;;;;;;5.90;5.07;;;;;-2.90;98623.00;;;;5054730;28;20450;-68
2022/03/22 06:34:22;;;;;;;2.27;1.97;;;;;-3.20;98627.00;;;;5050260;28;20437;-69
2022/03/22 06:37:11;;;;;;;5.83;5.03;;;;;-2.80;98624.00;;;;5049266;28;20432;-68
2022/03/22 06:40:00;;;;;;;8.40;5.10;;;;;-2.60;98626.00;;;;5046262;28;20452;-68
2022/03/22 06:42:51;;;;;;;6.83;5.23;;;;;-2.40;98633.00;;;;5044973;28;20465;-70
2022/03/22 06:45:41;;;;;;;7.27;5.37;;;;;-2.10;98638.00;;;;5045115;28;20459;-70
2022/03/22 06:48:31;;;;;;;7.33;4.67;;;;;-2.00;98640.00;;;;5043665;28;20427;-70
2022/03/22 06:51:21;;;;;;;4.97;4.37;;;;;-1.80;98635.00;;;;5053947;28;20826;-70
2022/03/22 06:54:10;;;;;;;7.93;5.13;;;;;-1.50;98644.00;;;;5049592;28;20451;-70
2022/03/22 06:56:59;;;;;;;8.03;5.47;;;;;-1.30;98650.00;;;;5049907;28;20516;-70
2022/03/22 06:59:50;;;;;;;8.03;6.43;;;;;-1.10;98657.00;;;;5052658;28;20518;-70
2022/03/22 07:02:40;;;;;;;6.00;4.93;;;;;-0.90;98662.00;;;;5048093;28;20447;-70
2022/03/22 07:05:29;;;;;;;10.27;5.70;;;;;-0.60;98658.00;;;;5048746;28;20438;-70
2022/03/22 07:08:19;;;;;;;5.00;4.40;;;;;-0.60;98656.00;;;;5052893;28;20438;-70
2022/03/22 07:14:14;;;;;;;7.20;5.17;;;;;-0.20;98657.00;;;;5059421;28;20469;-70
2022/03/22 07:17:05;;;;;;;9.63;5.60;;;;;0.20;98664.00;;;;5050285;28;20454;-70
2022/03/22 07:19:54;;;;;;;9.43;5.60;;;;;0.40;98666.00;;;;5054606;28;20442;-70
2022/03/22 07:22:43;;;;;;;10.30;6.33;;;;;0.70;98673.00;;;;5046877;28;20477;-70
2022/03/22 07:25:33;;;;;;;7.97;6.27;;;;;0.80;98663.00;;;;5052892;28;20454;-70
2022/03/22 07:28:22;;;;;;;10.00;6.60;;;;;0.90;98662.00;;;;5052917;28;20447;-70
2022/03/22 07:31:11;;;;;;;11.03;7.60;;;;;1.10;98666.00;;;;5052556;28;20455;-70
2022/03/22 07:34:01;;;;;;;8.50;6.13;;;;;1.00;98670.00;;;;5052965;28;20989;-70
2022/03/22 07:36:52;;;;;;;9.87;6.90;;;;;1.50;98671.00;;;;5052742;28;20781;-70
2022/03/22 07:39:41;;;;;;;9.77;6.23;;;;;1.70;98671.00;;;;5052664;28;20438;-70
2022/03/22 07:42:30;;;;;;;10.73;7.07;;;;;2.00;98673.00;;;;5041526;28;20445;-70
2022/03/22 07:45:19;;;;;;;15.03;7.33;;;;;2.40;98678.00;;;;5052878;28;20424;-70
2022/03/22 07:48:08;;;;;;;10.13;6.90;;;;;3.10;98684.00;;;;5051754;28;20427;-70
2022/03/22 07:54:05;;;;;;;10.57;8.10;;;;;4.20;98688.00;;;;5043616;28;20470;-70
2022/03/22 07:56:54;;;;;;;10.33;6.87;;;;;4.50;98689.00;;;;5051932;28;20813;-71
2022/03/22 07:59:43;;;;;;;11.43;6.73;;;;;4.90;98686.00;;;;5051747;28;20437;-71
2022/03/22 08:02:36;;;;;;;15.17;7.50;;;;;4.90;98697.00;;;;5051909;28;20447;-70
2022/03/22 08:05:26;;;;;;;13.17;7.40;;;;;5.20;98688.00;;;;5041776;28;20431;-70
2022/03/22 08:08:17;;;;;;;10.87;7.47;;;;;5.60;98699.00;;;;5051748;28;20419;-71
2022/03/22 08:11:24;;;;;;;13.60;6.80;;;;;6.00;98685.00;;;;5051394;28;20462;-71
2022/03/22 08:14:13;;;;;;;10.83;7.40;;;;;6.20;98685.00;;;;5051488;28;20604;-71
2022/03/22 08:17:02;;;;;;;11.67;6.73;;;;;6.60;98695.00;;;;5052966;28;20236;-71
2022/03/22 08:19:51;;;;;;;11.50;7.43;;;;;6.80;98700.00;;;;5052177;28;20240;-71
2022/03/22 08:22:50;;;;;;;11.53;7.17;;;;;7.10;98710.00;;;;5050941;28;20220;-71
2022/03/22 08:25:44;;;;;;;9.70;7.23;;;;;7.20;98696.00;;;;5052387;28;20213;-71
2022/03/22 08:28:33;;;;;;;9.73;6.03;;;;;7.30;98702.00;;;;5050665;28;20216;-71
2022/03/22 08:31:22;;;;;;;12.57;7.60;;;;;7.30;98687.00;;;;5051616;28;20235;-71
2022/03/22 08:34:12;;;;;;;15.60;7.27;;;;;7.60;98697.00;;;;5051782;28;20746;-71
2022/03/22 08:37:03;;;;;;;8.93;6.90;;;;;7.80;98695.00;;;;5052571;28;20200;-70
2022/03/22 08:39:52;;;;;;;10.80;7.67;;;;;8.10;98693.00;;;;5039577;28;20208;-70
2022/03/22 08:42:44;;;;;;;11.33;6.20;;;;;8.40;98684.00;;;;5050979;28;20228;-70
2022/03/22 08:45:35;;;;;;;10.27;7.77;;;;;8.70;98705.00;;;;5051625;28;20201;-70
2022/03/22 08:48:25;;;;;;;11.73;7.67;;;;;9.00;98701.00;;;;5050343;28;20204;-70
2022/03/22 08:51:15;;;;;;;14.97;7.67;;;;;9.30;98692.00;;;;5050527;28;20307;-70
2022/03/22 08:54:06;;;;;;;14.67;8.00;;;;;9.50;98699.00;;;;5043547;28;20224;-70
2022/03/22 08:56:55;;;;;;;12.93;6.97;;;;;9.60;98684.00;;;;5051539;28;20559;-70
2022/03/22 08:59:46;;;;;;;8.67;6.33;;;;;9.80;98684.00;;;;5048564;28;20204;-70
2022/03/22 09:02:35;;;;;;;11.87;6.23;;;;;10.10;98685.00;;;;5043723;28;20220;-70
2022/03/22 09:08:34;;;;;;;11.13;6.90;;;;;10.20;98680.00;;;;5049662;28;20200;-70
2022/03/22 09:11:23;;;;;;;14.77;9.30;;;;;10.60;98676.00;;;;5042975;28;20825;-70
2022/03/22 09:14:12;;;;;;;9.33;6.20;;;;;10.80;98683.00;;;;5049122;28;20293;-70
2022/03/22 09:17:02;;;;;;;11.53;6.23;;;;;11.00;98676.00;;;;5049288;28;20205;-71
2022/03/22 09:19:51;;;;;;;6.93;5.53;;;;;11.20;98688.00;;;;5045987;28;20200;-71
2022/03/22 09:22:48;;;;;;;9.80;6.37;;;;;11.40;98685.00;;;;5043098;28;20212;-71
2022/03/22 09:25:37;;;;;;;8.00;6.30;;;;;11.20;98676.00;;;;5046689;28;20600;-71
2022/03/22 09:28:26;;;;;;;9.93;6.50;;;;;11.70;98681.00;;;;5049032;28;20215;-71
2022/03/22 09:31:15;;;;;;;8.07;6.07;;;;;11.90;98682.00;;;;5041132;28;20282;-71
2022/03/22 09:34:06;;;;;;;7.20;5.50;;;;;12.10;98680.00;;;;5048641;28;20266;-71
2022/03/22 09:36:55;;;;;;;8.23;6.17;;;;;12.50;98683.00;;;;5048061;28;20196;-71
2022/03/22 09:39:45;;;;;;;8.53;6.07;;;;;12.40;98672.00;;;;5040806;28;20695;-70
2022/03/22 09:42:34;;;;;;;8.57;6.50;;;;;12.50;98673.00;;;;5045894;28;20216;-71
2022/03/22 09:45:26;;;;;;;10.47;7.63;;;;;12.20;98674.00;;;;5043030;28;20337;-71
2022/03/22 09:48:16;;;;;;;10.00;6.17;;;;;12.70;98667.00;;;;5042164;28;20208;-71
2022/03/22 09:54:15;;;;;;;10.57;6.10;;;;;13.00;98668.00;;;;5042589;28;20239;-71
2022/03/22 09:57:05;;;;;;;7.87;6.13;;;;;13.10;98659.00;;;;5034872;28;20205;-71
2022/03/22 09:59:54;;;;;;;8.83;6.30;;;;;13.00;98658.00;;;;5041032;28;20676;-70
2022/03/22 10:02:43;;;;;;;8.80;6.17;;;;;13.10;98657.00;;;;5046952;28;20602;-70
2022/03/22 10:05:32;;;;;;;8.00;6.30;;;;;12.80;98652.00;;;;5051487;28;20741;-70
2022/03/22 10:08:23;;;;;;;9.10;6.53;;;;;13.50;98654.00;;;;5036342;28;20675;-70
2022/03/22 10:11:12;;;;;;;9.00;6.00;;;;;13.50;98654.00;;;;5049022;28;20239;-70
2022/03/22 10:14:01;;;;;;;8.67;6.30;;;;;14.30;98655.00;;;;5046677;28;20716;-70
2022/03/22 10:16:52;;;;;;;9.43;6.80;;;;;13.90;98652.00;;;;5046386;28;20580;-70
2022/03/22 10:19:43;;;;;;;9.40;6.73;;;;;14.50;98659.00;;;;5050401;28;20196;-70
2022/03/22 10:22:33;;;;;;;8.13;6.37;;;;;14.20;98650.00;;;;5050734;28;20228;-70
2022/03/22 10:25:23;;;;;;;9.03;6.67;;;;;13.90;98643.00;;;;5057448;28;20189;-70
2022/03/22 10:28:14;;;;;;;13.10;5.73;;;;;14.10;98646.00;;;;5057775;28;20216;-70
2022/03/22 10:31:03;;;;;;;10.77;6.30;;;;;12.70;98639.00;;;;5051920;28;20224;-67
2022/03/22 10:33:53;;;;;;;7.27;5.87;;;;;13.80;98646.00;;;;5050106;28;20221;-68
2022/03/22 10:36:42;;;;;;;8.53;6.33;;;;;14.60;98631.00;;;;5045935;28;20201;-68
2022/03/22 10:39:36;;;;;;;8.17;6.50;;;;;15.10;98634.00;;;;5045061;28;20210;-68
2022/03/22 10:42:27;;;;;;;9.87;5.17;;;;;15.80;98645.00;;;;5043318;28;20220;-69
2022/03/22 10:45:16;;;;;;;9.53;6.60;;;;;14.20;98638.00;;;;5048854;28;20204;-68
2022/03/22 10:48:06;;;;;;;7.63;6.03;;;;;15.50;98633.00;;;;5049085;28;20192;-68
2022/03/22 10:50:58;;;;;;;11.37;6.40;;;;;16.20;98633.00;;;;5048501;28;20228;-69
2022/03/22 10:53:47;;;;;;;8.63;6.40;;;;;16.80;98624.00;;;;5044827;28;20691;-69
2022/03/22 10:56:36;;;;;;;7.90;6.73;;;;;17.10;98624.00;;;;5047507;28;20216;-69
2022/03/22 10:59:27;;;;;;;7.60;6.30;;;;;17.50;98624.00;;;;5049603;28;20697;-69
2022/03/22 11:02:18;;;;;;;9.60;6.30;;;;;15.10;98594.00;;;;5048286;28;20228;-68
2022/03/22 11:05:08;;;;;;;8.87;7.47;;;;;16.30;98608.00;;;;5049610;28;20589;-69
2022/03/22 11:07:58;;;;;;;9.83;6.10;;;;;16.40;98604.00;;;;5048188;28;20215;-69
2022/03/22 11:10:47;;;;;;;7.20;6.40;;;;;17.80;98603.00;;;;5048829;28;20283;-70
2022/03/22 11:13:37;;;;;;;8.33;6.40;;;;;15.70;98587.00;;;;5049832;28;20214;-69
2022/03/22 11:16:29;;;;;;;15.33;6.47;;;;;16.50;98589.00;;;;5036498;28;20208;-69
2022/03/22 11:19:21;;;;;;;8.80;6.60;;;;;17.30;98585.00;;;;5049282;28;20209;-69
2022/03/22 11:22:10;;;;;;;9.03;6.87;;;;;17.00;98586.00;;;;5048527;28;20220;-69
2022/03/22 11:25:10;;;;;;;7.50;6.70;;;;;18.00;98591.00;;;;5049752;28;20215;-69
2022/03/22 11:28:00;;;;;;;10.30;6.70;;;;;19.10;98585.00;;;;5042606;28;20231;-68
2022/03/22 11:30:52;;;;;;;6.73;6.00;;;;;16.10;98568.00;;;;5051691;28;20726;-69
2022/03/22 11:36:53;;;;;;;10.83;6.77;;;;;18.70;98576.00;;;;5056849;28;20663;-70
2022/03/22 11:43:00;;;;;;;8.17;6.17;;;;;19.00;98576.00;;;;5052526;28;20204;-69
2022/03/22 11:45:50;;;;;;;8.20;6.77;;;;;19.90;98570.00;;;;5048738;28;20220;-70
2022/03/22 11:48:41;;;;;;;9.40;6.33;;;;;20.70;98567.00;;;;5048566;28;20204;-70
2022/03/22 11:51:33;;;;;;;8.33;6.67;;;18.80;34.40;18.80;98556.00;;;;5051269;28;20231;-70
2022/03/22 11:54:23;;;;;;;8.40;7.53;;;19.10;33.20;17.70;98545.00;;;;5052290;28;20205;-69
2022/03/22 11:57:17;;;;;;;7.03;6.23;;;18.90;32.60;17.00;98543.00;;;;5052459;28;20207;-69
2022/03/22 12:00:08;;;;;;;10.07;6.20;;;18.30;32.10;15.90;98524.00;;;;5053655;28;20197;-69
2022/03/22 12:02:57;;;;;;;8.30;7.50;;;17.50;32.20;18.60;98541.00;;;;5051635;28;20222;-69
2022/03/22 12:05:47;;;;;;;7.57;6.10;;;17.40;33.30;19.30;98544.00;;;;5049988;28;20300;-69
2022/03/22 12:08:37;;;;;;;15.63;6.77;;;17.70;33.80;18.10;98535.00;;;;5047172;28;20205;-69
2022/03/22 12:11:26;;;;;;;9.50;7.20;;;17.80;32.40;19.70;98536.00;;;;5052124;28;20228;-69
2022/03/22 12:14:27;;;;;;;9.77;7.17;;;18.30;33.70;20.00;98529.00;;;;5051821;28;20197;-69
2022/03/22 12:17:17;;;;;;;9.63;7.77;;;18.70;33.60;18.90;98520.00;;;;5051356;28;20205;-69
2022/03/22 12:20:11;;;;;;;8.53;6.83;;;19.00;32.40;20.20;98522.00;;;;5052146;28;20547;-70
2022/03/22 12:23:03;;;;;;;10.90;7.20;;;19.10;31.80;20.90;98523.00;;;;5047850;28;20213;-69
2022/03/22 12:25:52;;;;;;;7.53;6.73;;;19.50;33.00;21.20;98522.00;;;;5050614;28;20685;-70
2022/03/22 12:28:49;;;;;;;8.27;6.73;;;19.80;32.40;18.90;98510.00;;;;5051228;28;20560;-69
2022/03/22 12:31:47;;;;;;;11.20;6.73;;;19.90;30.80;20.10;98505.00;;;;5051655;28;20262;-69
2022/03/22 12:34:37;;;;;;;8.00;6.80;;;20.10;31.10;20.20;98506.00;;;;5051231;28;20282;-69
2022/03/22 12:37:26;;;;;;;8.30;7.03;;;20.10;30.60;20.20;98506.00;;;;5048668;28;20201;-69
2022/03/22 12:40:17;;;;;;;8.97;6.43;;;20.30;30.90;21.60;98495.00;;;;5046367;28;20211;-70
2022/03/22 12:43:11;;;;;;;7.63;6.43;;;20.40;31.00;23.10;98496.00;;;;5047865;23;20237;-87
2022/03/22 12:46:00;;;;;;;;;;;20.70;31.90;24.40;98501.00;;;;5030356;28;20037;-88
2022/03/22 12:48:52;;;;;;;8.57;6.78;;;21.30;31.70;21.10;98488.00;;;;5028846;28;20441;-87
2022/03/22 12:51:42;;;;;;;8.30;6.20;;;21.60;29.50;20.80;98475.00;;;;5037926;28;20666;-88
2022/03/22 12:54:35;;;;;;;10.17;6.73;;;21.50;29.80;22.40;98492.00;;;;5041794;28;20586;-87
2022/03/22 12:57:25;;;;;;;9.97;6.77;;;21.30;29.60;23.10;98482.00;;;;5044589;28;20251;-87
2022/03/22 13:00:27;;;;;;;8.17;6.37;;;21.30;29.90;22.00;98477.00;;;;5050875;28;20196;-87
2022/03/22 13:03:17;;;;;;;6.73;6.00;;;21.30;30.80;23.20;98481.00;;;;5043046;28;20216;-87
2022/03/22 13:06:08;;;;;;;10.57;6.90;;;21.60;30.00;23.80;98477.00;;;;5043885;28;20232;-87
2022/03/22 13:12:10;;;;;;;8.30;6.33;;;22.40;29.50;24.00;98469.00;;;;5045923;28;20221;-88
2022/03/22 13:15:07;;;;;;;7.07;6.40;;;22.60;30.10;24.60;98468.00;;;;5049556;28;20220;-88
2022/03/22 13:17:56;;;;;;;7.13;6.40;;;22.80;30.00;24.30;98459.00;;;;5048570;28;20209;-88
2022/03/22 13:20:45;;;;;;;7.90;6.63;;;22.90;29.20;22.00;98457.00;;;;5046644;28;20214;-87
2022/03/22 13:23:34;;;;;;;7.73;5.97;;;22.90;28.80;18.30;98436.00;;;;5048150;28;20262;-86
2022/03/22 13:26:24;;;;;;;7.90;6.73;;;22.20;28.20;19.90;98438.00;;;;5047827;28;20204;-86
2022/03/22 13:29:15;;;;;;;9.10;6.00;;;21.10;28.60;22.20;98447.00;;;;5050797;28;20204;-86
2022/03/22 13:32:07;;;;;;;8.03;5.50;;;21.10;29.80;19.10;98429.00;;;;5048312;28;20234;-85
2022/03/22 13:35:03;;;;;;;8.30;6.43;;;21.20;29.20;20.30;98427.00;;;;5051111;28;20212;-86
2022/03/22 13:37:53;;;;;;;7.50;6.80;;;20.90;29.60;21.30;98428.00;;;;5050203;28;20204;-86
2022/03/22 13:40:43;;;;;;;6.93;5.90;;;20.70;29.50;20.60;98427.00;;;;5039222;28;20209;-87
2022/03/22 13:43:32;;;;;;;9.50;6.70;;;20.90;29.50;22.10;98434.00;;;;5050093;28;20227;-87
2022/03/22 13:46:21;;;;;;;7.03;6.00;;;21.20;29.60;23.50;98433.00;;;;5051189;28;20202;-87
2022/03/22 13:49:12;;;;;;;6.83;5.60;;;21.70;29.80;24.80;98434.00;;;;5049605;28;20202;-87
2022/03/22 13:52:01;;;;;;;6.97;6.37;;;22.20;29.60;24.70;98431.00;;;;5049319;28;20351;-87
2022/03/22 13:54:53;;;;;;;7.87;6.33;;;22.80;29.20;24.50;98441.00;;;;5050797;28;20321;-86
2022/03/22 13:57:42;;;;;;;11.87;6.13;;;22.90;29.80;24.00;98425.00;;;;5044873;28;20677;-87
2022/03/22 14:00:33;;;;;;;7.17;5.93;;;22.90;29.10;24.20;98430.00;;;;5049326;28;20557;-87
2022/03/22 14:03:24;;;;;;;7.90;6.73;;;22.80;29.70;23.20;98421.00;;;;5050292;28;20201;-87
2022/03/22 14:06:15;;;;;;;6.33;5.63;;;23.10;28.10;24.50;98426.00;;;;5047902;28;20207;-86
2022/03/22 14:09:04;;;;;;;6.73;6.07;;;23.10;28.60;24.50;98425.00;;;;5047811;28;20214;-87
2022/03/22 14:11:53;;;;;;;8.03;6.70;;;23.20;28.70;24.20;98416.00;;;;5044984;28;20231;-88
2022/03/22 14:14:43;;;;;;;7.50;5.77;;;23.20;28.80;24.10;98412.00;;;;5038112;28;20215;-88
2022/03/22 14:17:31;;;;;;;6.33;5.73;;;23.20;28.80;22.70;98417.00;;;;5047539;28;20198;-88
2022/03/22 14:20:23;;;;;;;6.50;5.30;;;23.40;28.40;21.70;98405.00;;;;5040329;28;20202;-88
2022/03/22 14:23:13;;;;;;;7.03;5.90;;;23.10;27.40;21.30;98408.00;;;;5041794;28;20222;-87
2022/03/22 14:26:03;;;;;;;7.80;6.67;;;22.60;28.40;22.60;98401.00;;;;5045831;28;20235;-87
2022/03/22 14:28:52;;;;;;;5.97;5.37;;;22.50;28.90;20.70;98395.00;;;;5048238;28;20656;-87
2022/03/22 14:31:43;;;;;;;6.97;5.93;;;22.40;28.20;19.70;98392.00;;;;5048768;28;20211;-87
2022/03/22 14:37:37;;;;;;;11.37;6.73;;;21.90;28.80;21.40;98395.00;;;;5045486;28;20304;-87